Time;durP1;ratioP1;P1;durP2;ratioP2;P2;SDS_P1;SDS_P2;PMS_P1;PMS_P2;Temp;Humidity;BMP_temperature;BMP_pressure;BME280_temperature;BME280_humidity;BME280_pressure;Samples;Min_cycle;Max_cycle;Signal;HPM_P1;HPM_P2
2023/05/28 00:01:49;;;;;;;13.10;6.72;;;;;;;;;;4974741;28;20221;-62
2023/05/28 00:04:15;;;;;;;15.02;6.35;;;;;;;;;;4975858;28;20735;-61
2023/05/28 00:06:41;;;;;;;18.27;6.95;;;;;;;;;;4996216;28;20710;-61
2023/05/28 00:09:07;;;;;;;13.45;6.47;;;;;;;;;;4992736;28;20213;-61
2023/05/28 00:11:32;;;;;;;13.73;6.05;;;;;;;;;;4991135;28;20682;-61
2023/05/28 00:13:57;;;;;;;15.15;6.88;;;;;;;;;;4982366;28;20245;-61
2023/05/28 00:16:23;;;;;;;14.75;6.53;;;;;;;;;;4986530;28;20211;-61
2023/05/28 00:18:48;;;;;;;18.40;7.20;;;;;;;;;;5002074;28;20212;-61
2023/05/28 00:21:13;;;;;;;17.35;6.95;;;;;;;;;;5000931;28;20240;-61
2023/05/28 00:23:38;;;;;;;21.55;7.72;;;;;;;;;;4994372;28;20461;-61
2023/05/28 00:26:04;;;;;;;17.85;7.43;;;;;;;;;;4992727;28;20294;-61
2023/05/28 00:28:29;;;;;;;17.08;7.60;;;;;;;;;;4993633;28;20543;-61
2023/05/28 00:30:54;;;;;;;15.55;7.45;;;;;;;;;;5001408;28;20219;-61
2023/05/28 00:33:20;;;;;;;19.15;7.25;;;;;;;;;;5001582;28;20315;-61
2023/05/28 00:35:46;;;;;;;22.08;7.80;;;;;;;;;;5001120;28;20214;-61
2023/05/28 00:38:11;;;;;;;22.17;8.35;;;;;;;;;;4997970;28;20735;-61
2023/05/28 00:40:36;;;;;;;19.30;7.63;;;;;;;;;;4982596;28;20227;-61
2023/05/28 00:43:02;;;;;;;21.58;8.45;;;;;;;;;;4981112;28;20240;-61
2023/05/28 00:45:27;;;;;;;23.50;7.93;;;;;;;;;;4978284;28;20218;-61
2023/05/28 00:47:52;;;;;;;21.70;8.20;;;;;;;;;;4974457;28;20794;-61
2023/05/28 00:50:17;;;;;;;22.35;8.45;;;;;;;;;;4973651;28;20471;-61
2023/05/28 00:52:43;;;;;;;23.08;8.70;;;;;;;;;;4994801;28;20209;-61
2023/05/28 00:55:12;;;;;;;22.75;8.30;;;;;;;;;;5013914;28;20294;-61
2023/05/28 00:57:38;;;;;;;20.67;8.10;;;;;;;;;;4987967;28;20217;-61
2023/05/28 01:00:03;;;;;;;23.33;8.98;;;;;;;;;;4982036;28;20652;-61
2023/05/28 01:02:29;;;;;;;20.50;7.97;;;;;;;;;;5000632;28;20232;-62
2023/05/28 01:04:55;;;;;;;27.10;9.30;;;;;;;;;;4986509;28;20907;-61
2023/05/28 01:07:20;;;;;;;22.88;9.18;;;;;;;;;;4982607;28;20863;-61
2023/05/28 01:09:45;;;;;;;23.60;8.57;;;;;;;;;;4978253;28;20346;-61
2023/05/28 01:12:11;;;;;;;23.42;8.60;;;;;;;;;;4977488;28;20217;-61
2023/05/28 01:14:37;;;;;;;26.45;9.32;;;;;;;;;;4981141;28;20205;-61
2023/05/28 01:17:03;;;;;;;23.92;8.38;;;;;;;;;;4984429;28;20228;-61
2023/05/28 01:19:29;;;;;;;21.08;9.18;;;;;;;;;;5005086;28;20279;-61
2023/05/28 01:22:01;;;;;;;23.73;9.20;;;;;;;;;;5019823;28;20623;-61
2023/05/28 01:24:28;;;;;;;21.65;8.77;;;;;;;;;;4985651;28;20224;-61
2023/05/28 01:26:53;;;;;;;26.88;9.88;;;;;;;;;;5019325;28;20817;-61
2023/05/28 01:29:19;;;;;;;25.83;9.32;;;;;;;;;;5018204;28;20716;-61
2023/05/28 01:31:44;;;;;;;26.83;9.02;;;;;;;;;;4996408;28;20307;-61
2023/05/28 01:34:10;;;;;;;22.92;9.43;;;;;;;;;;4989945;28;20225;-61
2023/05/28 01:36:37;;;;;;;21.75;9.50;;;;;;;;;;4993341;28;20402;-61
2023/05/28 01:39:02;;;;;;;23.88;9.98;;;;;;;;;;4993024;28;20242;-61
2023/05/28 01:41:27;;;;;;;29.58;9.95;;;;;;;;;;5000574;28;20240;-61
2023/05/28 01:43:53;;;;;;;22.77;9.52;;;;;;;;;;5003841;28;21276;-61
2023/05/28 01:46:18;;;;;;;25.98;9.07;;;;;;;;;;5007789;28;20300;-61
2023/05/28 01:48:43;;;;;;;23.83;9.55;;;;;;;;;;4984633;28;20283;-61
2023/05/28 01:51:10;;;;;;;21.92;9.30;;;;;;;;;;4985095;28;20236;-61
2023/05/28 01:53:35;;;;;;;23.13;9.30;;;;;;;;;;4979865;28;20647;-61
2023/05/28 01:56:01;;;;;;;22.08;8.65;;;;;;;;;;4977632;28;20727;-61
2023/05/28 01:58:26;;;;;;;23.20;8.77;;;;;;;;;;4995491;28;20239;-61
2023/05/28 02:00:55;;;;;;;21.73;8.95;;;;;;;;;;4993777;28;20633;-61
2023/05/28 02:03:20;;;;;;;22.48;8.77;;;;;;;;;;5011077;28;20288;-61
2023/05/28 02:05:46;;;;;;;18.75;8.95;;;;;;;;;;4996466;28;20212;-61
2023/05/28 02:08:11;;;;;;;20.83;8.77;;;;;;;;;;5001267;28;20263;-61
2023/05/28 02:10:36;;;;;;;19.85;8.63;;;;;;;;;;4985297;28;20209;-61
2023/05/28 02:13:03;;;;;;;22.05;8.95;;;;;;;;;;4984600;28;20527;-61
2023/05/28 02:15:28;;;;;;;19.08;8.75;;;;;;;;;;4989033;28;20264;-61
2023/05/28 02:17:54;;;;;;;25.67;9.05;;;;;;;;;;5001878;28;20221;-60
2023/05/28 02:20:19;;;;;;;25.63;8.75;;;;;;;;;;5012711;28;20266;-61
2023/05/28 02:22:45;;;;;;;23.80;9.40;;;;;;;;;;5013782;28;20229;-61
2023/05/28 02:25:10;;;;;;;20.33;8.77;;;;;;;;;;4991297;28;20252;-61
2023/05/28 02:27:35;;;;;;;23.88;8.75;;;;;;;;;;4976052;28;20205;-62
2023/05/28 02:30:01;;;;;;;30.05;9.38;;;;;;;;;;4976484;28;20629;-61
2023/05/28 02:32:26;;;;;;;19.85;8.98;;;;;;;;;;4988869;28;20749;-61
2023/05/28 02:34:54;;;;;;;20.55;9.30;;;;;;;;;;5003048;28;20220;-61
2023/05/28 02:37:21;;;;;;;26.50;9.50;;;;;;;;;;5003428;28;20224;-61
2023/05/28 02:39:46;;;;;;;29.17;10.75;;;;;;;;;;5003629;28;20212;-61
2023/05/28 02:42:11;;;;;;;24.40;9.75;;;;;;;;;;5002419;28;20726;-61
2023/05/28 02:44:37;;;;;;;28.73;10.23;;;;;;;;;;5003157;28;20222;-61
2023/05/28 02:47:02;;;;;;;24.77;10.23;;;;;;;;;;4980474;28;20268;-61
2023/05/28 02:49:27;;;;;;;28.42;10.48;;;;;;;;;;4975673;28;20216;-61
2023/05/28 02:51:52;;;;;;;26.95;11.05;;;;;;;;;;4980420;28;20221;-62
2023/05/28 02:54:18;;;;;;;25.58;11.50;;;;;;;;;;4981952;28;20699;-61
2023/05/28 02:56:43;;;;;;;25.67;10.60;;;;;;;;;;4983482;28;20224;-61
2023/05/28 02:59:08;;;;;;;24.52;10.57;;;;;;;;;;4983471;28;20220;-61
2023/05/28 03:01:34;;;;;;;29.83;11.35;;;;;;;;;;4983717;28;20730;-61
2023/05/28 03:03:59;;;;;;;25.92;10.43;;;;;;;;;;4989518;28;20221;-61
2023/05/28 03:06:24;;;;;;;27.67;10.48;;;;;;;;;;4983351;28;20328;-61
2023/05/28 03:08:50;;;;;;;26.10;10.10;;;;;;;;;;4984007;28;20273;-61
2023/05/28 03:11:15;;;;;;;24.05;10.10;;;;;;;;;;4974678;28;20324;-62
2023/05/28 03:13:40;;;;;;;24.60;9.05;;;;;;;;;;4976702;28;20387;-61
2023/05/28 03:16:06;;;;;;;25.02;9.95;;;;;;;;;;4979641;28;20213;-61
2023/05/28 03:18:31;;;;;;;22.90;10.20;;;;;;;;;;4983328;28;20220;-61
2023/05/28 03:20:56;;;;;;;25.02;10.10;;;;;;;;;;4983606;28;20410;-61
2023/05/28 03:23:22;;;;;;;23.15;10.25;;;;;;;;;;4982442;28;20217;-61
2023/05/28 03:25:47;;;;;;;25.50;10.65;;;;;;;;;;4982220;28;20221;-61
2023/05/28 03:28:12;;;;;;;27.55;10.93;;;;;;;;;;4985888;28;20644;-61
2023/05/28 03:30:37;;;;;;;25.02;11.10;;;;;;;;;;4984973;28;20252;-61
2023/05/28 03:33:03;;;;;;;26.98;11.55;;;;;;;;;;4975252;28;20311;-61
2023/05/28 03:35:28;;;;;;;29.27;12.40;;;;;;;;;;4975118;28;20851;-61
2023/05/28 03:37:53;;;;;;;28.27;11.57;;;;;;;;;;4975269;28;20220;-61
2023/05/28 03:40:19;;;;;;;35.63;12.65;;;;;;;;;;4982971;28;20225;-61
2023/05/28 03:42:45;;;;;;;24.80;12.02;;;;;;;;;;4987472;28;20224;-61
2023/05/28 03:45:10;;;;;;;30.40;12.30;;;;;;;;;;4999644;28;20216;-61
2023/05/28 03:47:36;;;;;;;28.25;11.63;;;;;;;;;;4983289;28;20209;-61
2023/05/28 03:50:01;;;;;;;27.13;11.43;;;;;;;;;;4982791;28;20789;-61
2023/05/28 03:52:27;;;;;;;28.88;11.20;;;;;;;;;;4982527;28;20209;-61
2023/05/28 03:54:52;;;;;;;29.40;11.63;;;;;;;;;;4995581;28;20330;-61
2023/05/28 03:57:17;;;;;;;26.48;10.80;;;;;;;;;;4974047;28;20217;-60
2023/05/28 03:59:42;;;;;;;25.65;10.65;;;;;;;;;;4974604;28;20307;-61
2023/05/28 04:02:08;;;;;;;23.52;10.80;;;;;;;;;;4983907;28;20696;-61
2023/05/28 04:04:33;;;;;;;24.38;10.57;;;;;;;;;;4985194;28;20671;-61
2023/05/28 04:06:58;;;;;;;27.05;11.30;;;;;;;;;;5001009;28;20227;-61
2023/05/28 04:09:24;;;;;;;31.38;11.13;;;;;;;;;;5001746;28;20730;-61
2023/05/28 04:11:49;;;;;;;33.25;11.40;;;;;;;;;;4985382;28;20213;-61
2023/05/28 04:14:15;;;;;;;28.25;11.75;;;;;;;;;;4981618;28;20239;-60
2023/05/28 04:16:40;;;;;;;26.65;10.52;;;;;;;;;;4979121;28;20633;-61
2023/05/28 04:19:05;;;;;;;25.25;9.68;;;;;;;;;;4974389;28;20239;-61
2023/05/28 04:21:31;;;;;;;23.13;9.88;;;;;;;;;;4976343;28;20646;-61
2023/05/28 04:23:56;;;;;;;27.48;10.02;;;;;;;;;;4997534;28;20236;-61
2023/05/28 04:26:22;;;;;;;26.85;10.48;;;;;;;;;;5001670;28;20673;-61
2023/05/28 04:28:48;;;;;;;22.95;9.65;;;;;;;;;;4994372;28;20684;-61
2023/05/28 04:31:13;;;;;;;20.38;8.48;;;;;;;;;;4990701;28;20245;-60
2023/05/28 04:33:38;;;;;;;21.35;9.32;;;;;;;;;;5001951;28;20687;-61
2023/05/28 04:36:04;;;;;;;21.27;8.95;;;;;;;;;;5003189;28;20228;-61
2023/05/28 04:38:31;;;;;;;22.55;9.88;;;;;;;;;;5004837;28;20342;-61
2023/05/28 04:40:56;;;;;;;23.17;9.35;;;;;;;;;;4986653;28;20209;-61
2023/05/28 04:43:22;;;;;;;26.05;9.52;;;;;;;;;;4984179;28;20605;-61
2023/05/28 04:45:47;;;;;;;24.63;9.90;;;;;;;;;;4991689;28;20436;-61
2023/05/28 04:48:12;;;;;;;24.48;10.25;;;;;;;;;;4985079;28;20217;-61
2023/05/28 04:50:38;;;;;;;22.98;10.38;;;;;;;;;;4986561;28;20220;-61
2023/05/28 04:53:03;;;;;;;22.45;9.88;;;;;;;;;;4985467;28;20309;-61
2023/05/28 04:55:28;;;;;;;23.60;10.48;;;;;;;;;;4985713;28;20707;-61
2023/05/28 04:57:53;;;;;;;30.70;11.82;;;;;;;;;;4985911;28;20220;-61
2023/05/28 05:00:20;;;;;;;23.25;10.73;;;;;;;;;;4986909;28;20252;-61
2023/05/28 05:02:45;;;;;;;27.42;12.05;;;;;;;;;;4995961;28;20228;-61
2023/05/28 05:05:11;;;;;;;25.60;10.73;;;;;;;;;;4978047;28;20213;-61
2023/05/28 05:07:36;;;;;;;29.05;11.40;;;;;;;;;;4977889;28;20332;-61
2023/05/28 05:10:02;;;;;;;25.20;11.27;;;;;;;;;;4983497;28;20677;-60
2023/05/28 05:12:27;;;;;;;29.15;12.00;;;;;;;;;;4989675;28;20239;-61
2023/05/28 05:14:53;;;;;;;24.83;11.23;;;;;;;;;;4996904;28;20217;-61
2023/05/28 05:17:18;;;;;;;21.63;10.85;;;;;;;;;;4985158;28;20639;-61
2023/05/28 05:19:43;;;;;;;24.77;10.23;;;;;;;;;;4985364;28;20292;-61
2023/05/28 05:22:09;;;;;;;21.30;10.50;;;;;;;;;;4985832;28;20221;-61
2023/05/28 05:24:34;;;;;;;23.08;10.05;;;;;;;;;;4996418;28;20638;-61
2023/05/28 05:26:59;;;;;;;24.45;10.50;;;;;;;;;;4984842;28;20653;-61
2023/05/28 05:29:25;;;;;;;23.33;9.70;;;;;;;;;;4996237;28;20213;-61
2023/05/28 05:31:50;;;;;;;21.02;9.68;;;;;;;;;;4999695;28;20224;-61
2023/05/28 05:34:16;;;;;;;24.20;11.52;;;;;;;;;;5003978;28;20252;-64
2023/05/28 05:36:41;;;;;;;25.90;10.35;;;;;;;;;;5005238;28;20774;-63
2023/05/28 05:39:06;;;;;;;21.53;10.20;;;;;;;;;;5002992;28;20451;-63
2023/05/28 05:41:32;;;;;;;24.88;10.25;;;;;;;;;;5005194;28;20238;-65
2023/05/28 05:43:57;;;;;;;18.52;9.75;;;;;;;;;;5004423;28;20232;-64
2023/05/28 05:46:22;;;;;;;24.70;11.03;;;;;;;;;;4989970;28;20417;-62
2023/05/28 05:48:47;;;;;;;25.10;10.45;;;;;;;;;;4975133;28;20221;-64
2023/05/28 05:51:18;;;;;;;21.73;9.82;;;;;;;;;;4974951;28;20239;-64
2023/05/28 05:53:43;;;;;;;22.58;9.60;;;;;;;;;;4979298;28;20209;-63
2023/05/28 05:56:09;;;;;;;19.80;9.23;;;;;;;;;;5001107;28;20273;-63
2023/05/28 05:58:34;;;;;;;24.52;9.85;;;;;;;;;;4984960;28;20205;-64
2023/05/28 06:00:59;;;;;;;17.38;8.70;;;;;;;;;;4984428;28;20236;-63
2023/05/28 06:03:27;;;;;;;21.58;8.80;;;;;;;;;;4985126;28;20221;-64
2023/05/28 06:05:52;;;;;;;23.70;9.38;;;;;;;;;;5003332;28;20232;-64
2023/05/28 06:08:18;;;;;;;21.30;8.45;;;;;;;;;;5003574;28;20689;-64
2023/05/28 06:10:43;;;;;;;18.05;8.23;;;;;;;;;;4997227;28;20216;-64
2023/05/28 06:13:08;;;;;;;19.48;8.05;;;;;;;;;;4979848;28;20260;-64
2023/05/28 06:15:34;;;;;;;20.38;8.38;;;;;;;;;;4976471;28;20283;-64
2023/05/28 06:18:00;;;;;;;17.33;7.80;;;;;;;;;;4983559;28;20209;-64
2023/05/28 06:20:25;;;;;;;16.10;8.07;;;;;;;;;;4986053;28;20221;-62
2023/05/28 06:22:51;;;;;;;16.90;7.40;;;;;;;;;;5003991;28;20228;-63
2023/05/28 06:25:16;;;;;;;16.00;7.70;;;;;;;;;;5003005;28;20252;-64
2023/05/28 06:27:41;;;;;;;17.65;7.75;;;;;;;;;;5002917;28;20216;-63
2023/05/28 06:30:07;;;;;;;18.05;8.05;;;;;;;;;;5004698;28;20371;-62
2023/05/28 06:32:32;;;;;;;16.85;7.68;;;;;;;;;;5025254;28;20580;-63
2023/05/28 06:34:58;;;;;;;18.85;8.23;;;;;;;;;;5011790;28;20690;-64
2023/05/28 06:37:23;;;;;;;17.15;7.78;;;;;;;;;;5012451;28;20216;-63
2023/05/28 06:39:48;;;;;;;18.80;8.63;;;;;;;;;;5012100;28;20208;-63
2023/05/28 06:42:14;;;;;;;22.83;8.75;;;;;;;;;;5011703;28;20205;-63
2023/05/28 06:44:39;;;;;;;17.98;8.70;;;;;;;;;;5013351;28;20216;-63
2023/05/28 06:47:04;;;;;;;20.50;8.65;;;;;;;;;;5009873;28;20318;-61
2023/05/28 06:49:30;;;;;;;19.77;8.50;;;;;;;;;;5012456;28;20554;-61
2023/05/28 06:51:55;;;;;;;20.00;8.65;;;;;;;;;;5013458;28;20240;-62
2023/05/28 06:54:21;;;;;;;19.63;8.60;;;;;;;;;;5012780;28;20220;-62
2023/05/28 06:56:46;;;;;;;19.73;8.63;;;;;;;;;;5010589;28;20216;-62
2023/05/28 06:59:11;;;;;;;22.83;9.35;;;;;;;;;;5012373;28;20244;-61
2023/05/28 07:01:37;;;;;;;17.38;8.23;;;;;;;;;;5011932;28;20204;-61
2023/05/28 07:04:02;;;;;;;18.88;8.20;;;;;;;;;;5012131;28;20224;-61
2023/05/28 07:06:27;;;;;;;18.80;8.60;;;;;;;;;;5012696;28;20215;-61
2023/05/28 07:08:53;;;;;;;24.50;9.65;;;;;;;;;;5010570;28;20217;-61
2023/05/28 07:11:18;;;;;;;20.67;8.90;;;;;;;;;;5012126;28;20270;-61
2023/05/28 07:13:43;;;;;;;19.35;9.52;;;;;;;;;;5011129;28;20287;-61
2023/05/28 07:16:09;;;;;;;24.50;10.05;;;;;;;;;;5011305;28;20249;-61
2023/05/28 07:18:34;;;;;;;21.90;9.50;;;;;;;;;;5010921;28;20226;-62
2023/05/28 07:21:00;;;;;;;22.48;9.35;;;;;;;;;;5012821;28;20255;-61
2023/05/28 07:23:25;;;;;;;21.73;9.27;;;;;;;;;;5011581;28;20235;-61
2023/05/28 07:25:50;;;;;;;26.67;10.50;;;;;;;;;;5012794;28;20224;-61
2023/05/28 07:28:16;;;;;;;23.20;9.10;;;;;;;;;;5012296;28;20220;-60
2023/05/28 07:30:41;;;;;;;20.27;8.48;;;;;;;;;;5003440;28;20205;-61
2023/05/28 07:33:06;;;;;;;18.85;8.18;;;;;;;;;;5010424;28;20220;-61
2023/05/28 07:35:32;;;;;;;18.33;8.55;;;;;;;;;;5009911;28;20227;-61
2023/05/28 07:37:57;;;;;;;16.10;7.53;;;;;;;;;;5010382;28;20794;-61
2023/05/28 07:40:22;;;;;;;16.65;7.28;;;;;;;;;;5012365;28;20250;-61
2023/05/28 07:42:48;;;;;;;18.55;7.75;;;;;;;;;;5000542;28;20314;-61
2023/05/28 07:45:13;;;;;;;17.25;7.35;;;;;;;;;;5011378;28;20209;-60
2023/05/28 07:47:38;;;;;;;16.17;6.93;;;;;;;;;;5012729;28;20573;-61
2023/05/28 07:50:04;;;;;;;19.80;7.50;;;;;;;;;;5012072;28;20224;-60
2023/05/28 07:52:29;;;;;;;17.15;8.18;;;;;;;;;;5010755;28;20223;-61
2023/05/28 07:54:58;;;;;;;17.25;7.35;;;;;;;;;;5012668;28;20216;-61
2023/05/28 07:57:24;;;;;;;17.02;8.02;;;;;;;;;;5012061;28;20226;-60
2023/05/28 07:59:49;;;;;;;18.65;7.20;;;;;;;;;;5011498;28;20683;-61
2023/05/28 08:02:14;;;;;;;16.55;7.13;;;;;;;;;;5012183;28;21105;-60
2023/05/28 08:04:40;;;;;;;18.70;7.53;;;;;;;;;;5012753;28;20217;-61
2023/05/28 08:07:05;;;;;;;15.75;7.10;;;;;;;;;;5011454;28;20215;-60
2023/05/28 08:09:31;;;;;;;17.85;7.90;;;;;;;;;;5012439;28;20266;-60
2023/05/28 08:11:56;;;;;;;15.85;6.53;;;;;;;;;;5011698;28;20217;-61
2023/05/28 08:14:21;;;;;;;13.07;7.22;;;;;;;;;;5011753;28;20247;-60
2023/05/28 08:16:47;;;;;;;16.85;7.40;;;;;;;;;;5012476;28;20570;-61
2023/05/28 08:19:12;;;;;;;16.30;6.72;;;;;;;;;;5011243;28;20676;-61
2023/05/28 08:21:37;;;;;;;20.05;7.68;;;;;;;;;;5012615;28;20219;-61
2023/05/28 08:24:02;;;;;;;18.75;6.93;;;;;;;;;;5011916;28;20228;-61
2023/05/28 08:26:28;;;;;;;17.88;6.93;;;;;;;;;;5011495;28;20228;-61
2023/05/28 08:28:53;;;;;;;20.45;7.55;;;;;;;;;;5012479;28;20220;-61
2023/05/28 08:31:19;;;;;;;18.40;7.53;;;;;;;;;;5012125;28;20216;-60
2023/05/28 08:33:44;;;;;;;16.48;7.15;;;;;;;;;;5011641;28;20215;-60
2023/05/28 08:36:10;;;;;;;14.60;6.75;;;;;;;;;;5009882;28;20304;-60
2023/05/28 08:38:35;;;;;;;17.70;7.05;;;;;;;;;;5012372;28;20209;-60
2023/05/28 08:41:01;;;;;;;17.10;7.32;;;;;;;;;;5011320;28;20216;-59
2023/05/28 08:43:27;;;;;;;16.63;7.43;;;;;;;;;;5010516;28;20560;-60
2023/05/28 08:45:53;;;;;;;15.73;6.72;;;;;;;;;;5012129;28;20227;-61
2023/05/28 08:48:18;;;;;;;18.10;8.15;;;;;;;;;;5010936;28;20212;-60
2023/05/28 08:50:46;;;;;;;16.73;7.65;;;;;;;;;;5012257;28;20220;-60
2023/05/28 08:53:13;;;;;;;19.10;7.18;;;;;;;;;;5010486;28;20270;-61
2023/05/28 08:55:38;;;;;;;19.33;7.30;;;;;;;;;;5009490;28;20212;-61
2023/05/28 08:58:04;;;;;;;15.68;7.10;;;;;;;;;;5011395;28;20307;-61
2023/05/28 09:00:29;;;;;;;16.08;7.50;;;;;;;;;;5012317;28;20213;-61
2023/05/28 09:02:54;;;;;;;14.05;6.53;;;;;;;;;;5011323;28;20306;-61
2023/05/28 09:05:20;;;;;;;14.95;7.07;;;;;;;;;;5011948;28;20690;-61
2023/05/28 09:07:45;;;;;;;15.10;6.78;;;;;;;;;;5012138;28;20216;-61
2023/05/28 09:10:11;;;;;;;17.05;7.28;;;;;;;;;;5010836;28;20602;-61
2023/05/28 09:12:40;;;;;;;12.85;6.70;;;;;;;;;;5012023;28;20667;-61
2023/05/28 09:15:06;;;;;;;15.43;7.00;;;;;;;;;;5010974;28;20220;-61
2023/05/28 09:17:32;;;;;;;17.27;7.15;;;;;;;;;;5012002;28;20204;-61
2023/05/28 09:19:59;;;;;;;18.98;6.32;;;;;;;;;;5012117;28;20232;-61
2023/05/28 09:22:25;;;;;;;18.08;6.55;;;;;;;;;;5012194;28;20216;-61
2023/05/28 09:24:52;;;;;;;18.23;6.90;;;;;;;;;;5015335;28;20235;-61
2023/05/28 09:27:19;;;;;;;16.35;7.13;;;;;;;;;;5014703;28;20319;-61
2023/05/28 09:29:45;;;;;;;22.10;6.82;;;;;;;;;;5014355;28;20643;-61
2023/05/28 09:32:10;;;;;;;14.77;6.50;;;;;;;;;;5011022;28;20219;-61
2023/05/28 09:34:40;;;;;;;16.88;6.78;;;;;;;;;;4988553;28;20221;-62
2023/05/28 09:37:06;;;;;;;16.60;7.15;;;;;;;;;;5014910;28;20212;-61
2023/05/28 09:39:32;;;;;;;15.27;6.43;;;;;;;;;;5002113;28;20789;-61
2023/05/28 09:41:58;;;;;;;13.43;6.15;;;;;;;;;;4999306;28;20296;-62
2023/05/28 09:44:24;;;;;;;15.15;6.25;;;;;;;;;;4988760;28;20240;-61
2023/05/28 09:46:49;;;;;;;14.35;5.93;;;;;;;;;;4989597;28;20210;-61
2023/05/28 09:49:14;;;;;;;18.67;6.65;;;;;;;;;;4989385;28;20244;-61
2023/05/28 09:51:40;;;;;;;17.00;6.68;;;;;;;;;;5006548;28;20262;-61
2023/05/28 09:54:07;;;;;;;13.90;6.63;;;;;;;;;;5003865;28;20266;-60
2023/05/28 09:56:32;;;;;;;16.08;7.43;;;;;;;;;;4982940;28;20205;-61
2023/05/28 09:58:58;;;;;;;17.92;7.53;;;;;;;;;;4981026;28;20213;-61
2023/05/28 10:01:24;;;;;;;16.20;7.70;;;;;;;;;;5000835;28;20213;-61
2023/05/28 10:03:52;;;;;;;17.75;7.40;;;;;;;;;;5006145;28;20275;-61
2023/05/28 10:06:18;;;;;;;19.65;7.45;;;;;;;;;;5007173;28;20223;-61
2023/05/28 10:08:46;;;;;;;17.02;7.57;;;;;;;;;;4989298;28;20221;-61
2023/05/28 10:11:13;;;;;;;18.48;8.30;;;;;;;;;;5007261;28;20276;-61
2023/05/28 10:13:38;;;;;;;21.25;7.60;;;;;;;;;;5007808;28;20217;-62
2023/05/28 10:16:03;;;;;;;16.25;7.60;;;;;;;;;;5005729;28;20216;-61
2023/05/28 10:18:29;;;;;;;14.02;6.75;;;;;;;;;;4984828;28;20427;-62
2023/05/28 10:20:55;;;;;;;16.60;6.38;;;;;;;;;;4980866;28;20296;-61
2023/05/28 10:23:21;;;;;;;15.38;6.60;;;;;;;;;;4995773;28;20696;-62
2023/05/28 10:25:46;;;;;;;16.35;6.65;;;;;;;;;;5002089;28;20225;-62
2023/05/28 10:28:13;;;;;;;13.70;5.90;;;;;;;;;;5022840;28;20217;-61
2023/05/28 10:30:39;;;;;;;14.80;6.28;;;;;;;;;;5008068;28;20215;-62
2023/05/28 10:33:05;;;;;;;15.98;6.20;;;;;;;;;;5009740;28;20216;-61
2023/05/28 10:35:31;;;;;;;13.75;5.97;;;;;;;;;;5013797;28;20212;-61
2023/05/28 10:38:04;;;;;;;17.17;6.28;;;;;;;;;;5014290;28;20270;-62
2023/05/28 10:40:29;;;;;;;12.82;5.50;;;;;;;;;;5012436;28;20303;-61
2023/05/28 10:42:54;;;;;;;15.55;5.90;;;;;;;;;;5015595;28;20312;-61
2023/05/28 10:45:20;;;;;;;16.48;6.20;;;;;;;;;;5013852;28;20613;-62
2023/05/28 10:47:52;;;;;;;14.38;6.28;;;;;;;;;;5011872;28;20255;-62
2023/05/28 10:50:18;;;;;;;18.13;6.53;;;;;;;;;;5012431;28;20212;-61
2023/05/28 10:52:43;;;;;;;11.63;4.20;;;;;;;;;;5014062;28;20624;-62
2023/05/28 10:55:09;;;;;;;13.00;6.00;;;;;;;;;;5012090;28;20299;-62
2023/05/28 10:57:45;;;;;;;15.00;5.07;;;;;;;;;;5013795;28;20212;-61
2023/05/28 11:00:17;;;;;;;12.57;4.57;;;;;;;;;;5013449;28;20215;-61
2023/05/28 11:02:43;;;;;;;12.43;4.97;;;;;;;;;;5013134;28;20205;-62
2023/05/28 11:05:08;;;;;;;15.32;4.32;;;;;;;;;;5013306;28;20220;-61
2023/05/28 11:07:35;;;;;;;11.02;4.53;;;;;;;;;;5013314;28;20240;-62
2023/05/28 11:10:00;;;;;;;12.43;4.43;;;;;;;;;;5012252;28;20216;-61
2023/05/28 11:12:26;;;;;;;13.02;4.68;;;;;;;;;;5013522;28;20282;-63
2023/05/28 11:14:51;;;;;;;15.80;5.60;;;;;;;;;;5012609;28;20200;-62
2023/05/28 11:17:16;;;;;;;10.70;4.40;;;;;;;;;;5011883;28;20224;-62
2023/05/28 11:19:42;;;;;;;11.50;4.47;;;;;;;;;;5013428;28;20209;-63
2023/05/28 11:22:08;;;;;;;9.90;3.95;;;;;;;;;;5010955;28;20213;-62
2023/05/28 11:24:49;;;;;;;10.13;3.85;;;;;;;;;;5011963;28;20565;-62
2023/05/28 11:27:14;;;;;;;10.52;3.53;;;;;;;;;;5012509;28;20225;-62
2023/05/28 11:29:40;;;;;;;9.55;4.40;;;;;;;;;;5012442;28;20211;-62
2023/05/28 11:32:06;;;;;;;12.30;3.95;;;;;;;;;;5004419;28;20315;-62
2023/05/28 11:34:31;;;;;;;12.73;4.38;;;;;;;;;;5013201;28;20223;-63
2023/05/28 11:36:56;;;;;;;13.23;4.55;;;;;;;;;;5010878;28;20267;-63
2023/05/28 11:39:22;;;;;;;12.85;4.28;;;;;;;;;;5008376;28;20559;-62
2023/05/28 11:41:48;;;;;;;12.20;4.47;;;;;;;;;;5002316;28;20208;-63
2023/05/28 11:44:18;;;;;;;12.60;4.45;;;;;;;;;;5008825;28;20279;-62
2023/05/28 11:46:44;;;;;;;11.05;4.75;;;;;;;;;;5012376;28;20200;-63
2023/05/28 11:49:09;;;;;;;10.48;4.50;;;;;;;;;;5012449;28;20221;-62
2023/05/28 11:51:35;;;;;;;13.90;4.72;;;;;;;;;;5010878;28;20213;-63
2023/05/28 11:54:01;;;;;;;12.88;4.55;;;;;;;;;;5012372;28;20774;-61
2023/05/28 11:56:27;;;;;;;13.07;4.25;;;;;;;;;;5012852;28;20211;-62
2023/05/28 11:58:53;;;;;;;9.90;4.22;;;;;;;;;;5011851;28;20261;-62
2023/05/28 12:01:18;;;;;;;12.10;4.68;;;;;;;;;;5011929;28;20220;-62
2023/05/28 12:03:44;;;;;;;12.48;4.75;;;;;;;;;;5012817;28;20256;-62
2023/05/28 12:06:11;;;;;;;10.75;4.00;;;;;;;;;;5010687;28;20718;-62
2023/05/28 12:08:38;;;;;;;14.27;4.50;;;;;;;;;;5012671;28;20237;-62
2023/05/28 12:11:03;;;;;;;11.65;4.72;;;;;;;;;;5011439;28;20220;-61
2023/05/28 12:13:31;;;;;;;9.88;3.83;;;;;;;;;;5012609;28;20216;-62
2023/05/28 12:16:12;;;;;;;10.93;3.80;;;;;;;;;;5019505;28;20219;-62
2023/05/28 12:18:41;;;;;;;9.18;3.90;;;;;;;;;;5031280;28;20580;-62
2023/05/28 12:21:13;;;;;;;12.23;4.43;;;;;;;;;;5031835;28;20204;-62
2023/05/28 12:23:38;;;;;;;13.07;4.75;;;;;;;;;;5032427;28;20239;-62
2023/05/28 12:26:07;;;;;;;12.80;4.55;;;;;;;;;;5030839;28;20236;-62
2023/05/28 12:28:37;;;;;;;12.43;4.63;;;;;;;;;;5030881;28;20216;-62
2023/05/28 12:31:02;;;;;;;12.70;4.40;;;;;;;;;;5031583;28;20216;-62
2023/05/28 12:33:27;;;;;;;12.48;4.45;;;;;;;;;;5031527;28;20211;-62
2023/05/28 12:35:52;;;;;;;11.25;4.78;;;;;;;;;;5030875;28;20223;-62
2023/05/28 12:38:18;;;;;;;11.15;4.88;;;;;;;;;;5031732;28;20216;-62
2023/05/28 12:40:43;;;;;;;11.65;4.35;;;;;;;;;;5031514;28;20214;-62
2023/05/28 12:43:09;;;;;;;11.38;4.63;;;;;;;;;;5027602;28;20754;-62
2023/05/28 12:45:34;;;;;;;12.13;4.40;;;;;;;;;;5011749;28;20216;-62
2023/05/28 12:48:00;;;;;;;11.23;4.35;;;;;;;;;;5011581;28;20586;-62
2023/05/28 12:50:25;;;;;;;11.93;4.40;;;;;;;;;;5012258;28;20267;-62
2023/05/28 12:52:50;;;;;;;10.13;4.18;;;;;;;;;;5010023;28;20212;-62
2023/05/28 12:55:16;;;;;;;12.60;4.20;;;;;;;;;;5011001;28;20284;-62
2023/05/28 12:57:41;;;;;;;11.32;4.72;;;;;;;;;;5015530;28;20216;-62
2023/05/28 13:00:10;;;;;;;11.82;4.70;;;;;;;;;;5015099;28;20238;-62
2023/05/28 13:02:35;;;;;;;9.05;4.15;;;;;;;;;;5015888;28;20220;-62
2023/05/28 13:05:00;;;;;;;11.18;4.40;;;;;;;;;;5015512;28;20243;-62
2023/05/28 13:07:26;;;;;;;11.90;4.47;;;;;;;;;;5015439;28;20212;-62
2023/05/28 13:09:51;;;;;;;13.20;5.20;;;;;;;;;;5015845;28;20220;-62
2023/05/28 13:12:16;;;;;;;13.35;4.95;;;;;;;;;;5015346;28;20204;-62
2023/05/28 13:14:42;;;;;;;13.65;4.88;;;;;;;;;;5014798;28;20212;-62
2023/05/28 13:17:07;;;;;;;13.27;5.05;;;;;;;;;;5015200;28;20639;-62
2023/05/28 13:19:32;;;;;;;13.88;5.00;;;;;;;;;;5015860;28;20726;-62
2023/05/28 13:21:59;;;;;;;11.95;4.80;;;;;;;;;;5014846;28;20310;-62
2023/05/28 13:24:25;;;;;;;10.15;4.53;;;;;;;;;;5015226;28;20299;-62
2023/05/28 13:26:50;;;;;;;12.30;4.82;;;;;;;;;;5015619;28;20319;-62
2023/05/28 13:29:15;;;;;;;13.38;4.72;;;;;;;;;;5014152;28;20212;-62
2023/05/28 13:31:40;;;;;;;11.10;4.65;;;;;;;;;;5015178;28;20215;-62
2023/05/28 13:34:06;;;;;;;11.50;4.60;;;;;;;;;;5014923;28;20219;-62
2023/05/28 13:36:31;;;;;;;11.38;4.90;;;;;;;;;;5014727;28;20612;-62
2023/05/28 13:38:56;;;;;;;10.57;4.97;;;;;;;;;;5013243;28;20223;-62
2023/05/28 13:41:24;;;;;;;15.77;8.55;;;;;;;;;;5014966;28;20239;-61
2023/05/28 13:43:53;;;;;;;12.10;5.15;;;;;;;;;;5013700;28;20688;-63
2023/05/28 13:46:18;;;;;;;9.85;4.47;;;;;;;;;;5018167;28;20576;-62
2023/05/28 13:48:43;;;;;;;15.38;4.65;;;;;;;;;;5015185;28;20702;-62
2023/05/28 13:51:09;;;;;;;10.63;4.60;;;;;;;;;;5013716;28;20564;-62
2023/05/28 13:53:35;;;;;;;16.27;5.45;;;;;;;;;;5014910;28;20216;-62
2023/05/28 13:56:00;;;;;;;9.75;4.70;;;;;;;;;;5014403;28;20684;-62
2023/05/28 13:58:26;;;;;;;16.02;5.68;;;;;;;;;;5013893;28;20208;-62
2023/05/28 14:00:51;;;;;;;11.93;4.60;;;;;;;;;;5013156;28;20211;-62
2023/05/28 14:03:17;;;;;;;11.38;5.15;;;;;;;;;;5014208;28;20232;-62
2023/05/28 14:05:42;;;;;;;10.68;4.57;;;;;;;;;;5014161;28;20282;-62
2023/05/28 14:08:08;;;;;;;12.40;5.40;;;;;;;;;;5013563;28;20219;-62
2023/05/28 14:10:33;;;;;;;11.10;5.00;;;;;;;;;;5013941;28;20663;-62
2023/05/28 14:12:59;;;;;;;10.20;5.25;;;;;;;;;;5014704;28;20213;-62
2023/05/28 14:15:25;;;;;;;11.25;4.93;;;;;;;;;;5013414;28;20205;-63
2023/05/28 14:17:50;;;;;;;11.43;4.55;;;;;;;;;;5013725;28;20294;-62
2023/05/28 14:20:16;;;;;;;10.25;4.80;;;;;;;;;;5014042;28;20221;-62